Time;durP1;ratioP1;P1;durP2;ratioP2;P2;SDS_P1;SDS_P2;PMS_P1;PMS_P2;Temp;Humidity;BMP_temperature;BMP_pressure;BME280_temperature;BME280_humidity;BME280_pressure;Samples;Min_cycle;Max_cycle;Signal;HPM_P1;HPM_P2
2023/07/25 00:01:18;;;;;;;4.47;1.80;;;;;;;;;;5130240;27;21576;-61
2023/07/25 00:03:45;;;;;;;4.67;1.80;;;;;;;;;;5141706;27;20034;-61
2023/07/25 00:06:10;;;;;;;4.90;1.77;;;;;;;;;;5136712;27;20027;-61
2023/07/25 00:08:36;;;;;;;5.70;1.80;;;;;;;;;;5128399;27;20027;-61
2023/07/25 00:11:03;;;;;;;4.37;1.67;;;;;;;;;;5129414;27;20038;-61
2023/07/25 00:13:28;;;;;;;5.70;2.15;;;;;;;;;;5140214;27;20019;-61
2023/07/25 00:15:54;;;;;;;3.93;1.83;;;;;;;;;;5141603;27;20071;-60
2023/07/25 00:18:19;;;;;;;5.37;1.97;;;;;;;;;;5138455;27;20034;-61
2023/07/25 00:20:44;;;;;;;4.18;1.90;;;;;;;;;;5147865;27;20114;-59
2023/07/25 00:23:09;;;;;;;4.73;2.00;;;;;;;;;;5133699;27;20220;-61
2023/07/25 00:25:34;;;;;;;4.43;1.73;;;;;;;;;;5128301;27;20894;-61
2023/07/25 00:27:59;;;;;;;4.23;1.80;;;;;;;;;;5133144;27;20051;-62
2023/07/25 00:30:25;;;;;;;5.00;1.80;;;;;;;;;;5125745;27;20605;-60
2023/07/25 00:32:50;;;;;;;4.10;1.80;;;;;;;;;;5127452;27;20486;-60
2023/07/25 00:35:15;;;;;;;4.47;1.70;;;;;;;;;;5123956;27;20065;-60
2023/07/25 00:37:40;;;;;;;5.67;2.10;;;;;;;;;;5125476;27;20081;-61
2023/07/25 00:40:06;;;;;;;4.88;2.15;;;;;;;;;;5131716;27;20433;-61
2023/07/25 00:42:31;;;;;;;5.60;2.42;;;;;;;;;;5131131;27;20021;-62
2023/07/25 00:44:56;;;;;;;5.20;2.03;;;;;;;;;;5130809;27;20011;-61
2023/07/25 00:47:22;;;;;;;5.65;1.83;;;;;;;;;;5124709;27;20012;-61
2023/07/25 00:49:47;;;;;;;5.78;2.17;;;;;;;;;;5127141;27;20107;-61
2023/07/25 00:52:13;;;;;;;4.28;2.00;;;;;;;;;;5131364;27;20027;-62
2023/07/25 00:54:39;;;;;;;4.60;2.03;;;;;;;;;;5130631;27;20075;-58
2023/07/25 00:57:05;;;;;;;5.90;2.08;;;;;;;;;;5130085;27;20023;-60
2023/07/25 00:59:30;;;;;;;4.75;2.10;;;;;;;;;;5131333;27;20023;-60
2023/07/25 01:01:55;;;;;;;5.23;2.13;;;;;;;;;;5131235;27;20023;-62
2023/07/25 01:04:21;;;;;;;5.10;2.00;;;;;;;;;;5124352;27;20029;-61
2023/07/25 01:06:47;;;;;;;6.27;2.10;;;;;;;;;;5142885;27;20067;-60
2023/07/25 01:09:12;;;;;;;5.90;1.80;;;;;;;;;;5135982;27;20432;-63
2023/07/25 01:11:37;;;;;;;6.57;2.27;;;;;;;;;;5135153;27;20031;-61
2023/07/25 01:14:02;;;;;;;4.90;2.23;;;;;;;;;;5131129;27;20019;-59
2023/07/25 01:16:28;;;;;;;3.63;1.60;;;;;;;;;;5130245;27;20344;-61
2023/07/25 01:18:54;;;;;;;5.10;1.67;;;;;;;;;;5135290;27;20015;-62
2023/07/25 01:21:20;;;;;;;4.55;1.92;;;;;;;;;;5128570;27;20042;-60
2023/07/25 01:23:45;;;;;;;4.43;1.60;;;;;;;;;;5134442;27;20088;-63
2023/07/25 01:26:10;;;;;;;4.07;1.87;;;;;;;;;;5135437;27;20019;-62
2023/07/25 01:28:37;;;;;;;4.63;1.90;;;;;;;;;;5135274;27;20091;-62
2023/07/25 01:31:02;;;;;;;4.82;2.00;;;;;;;;;;5132766;27;20047;-59
2023/07/25 01:33:27;;;;;;;4.07;1.73;;;;;;;;;;5138248;27;20045;-61
2023/07/25 01:35:52;;;;;;;5.13;1.90;;;;;;;;;;5143665;27;20576;-61
2023/07/25 01:38:17;;;;;;;4.60;1.67;;;;;;;;;;5136609;27;20102;-62
2023/07/25 01:40:43;;;;;;;5.60;1.73;;;;;;;;;;5142325;27;20018;-59
2023/07/25 01:43:08;;;;;;;4.80;1.77;;;;;;;;;;5134669;27;20479;-62
2023/07/25 01:45:34;;;;;;;4.30;1.85;;;;;;;;;;5135385;27;20012;-62
2023/07/25 01:47:59;;;;;;;4.57;1.80;;;;;;;;;;5135118;27;20027;-58
2023/07/25 01:50:25;;;;;;;4.30;1.75;;;;;;;;;;5137120;27;20449;-60
2023/07/25 01:52:50;;;;;;;4.53;1.70;;;;;;;;;;5141051;27;20020;-61
2023/07/25 01:55:15;;;;;;;4.82;1.80;;;;;;;;;;5135453;27;20018;-62
2023/07/25 01:57:40;;;;;;;3.97;1.67;;;;;;;;;;5126482;27;20117;-61
2023/07/25 02:00:05;;;;;;;7.00;1.90;;;;;;;;;;5138164;27;20026;-61
2023/07/25 02:02:31;;;;;;;5.47;1.80;;;;;;;;;;5134505;27;20027;-61
2023/07/25 02:04:56;;;;;;;5.38;1.75;;;;;;;;;;5144202;27;20031;-61
2023/07/25 02:07:21;;;;;;;5.10;1.93;;;;;;;;;;5136816;27;20015;-60
2023/07/25 02:09:46;;;;;;;3.70;1.50;;;;;;;;;;5142349;27;20018;-59
2023/07/25 02:12:11;;;;;;;5.00;1.50;;;;;;;;;;5138532;27;20118;-61
2023/07/25 02:14:37;;;;;;;4.00;1.73;;;;;;;;;;5136880;27;20529;-61
2023/07/25 02:17:02;;;;;;;5.10;1.80;;;;;;;;;;5136224;27;20022;-60
2023/07/25 02:19:27;;;;;;;4.40;1.83;;;;;;;;;;5135385;27;20383;-61
2023/07/25 02:21:52;;;;;;;5.60;1.70;;;;;;;;;;5135433;27;20389;-62
2023/07/25 02:24:17;;;;;;;4.40;1.80;;;;;;;;;;5133945;27;20023;-61
2023/07/25 02:26:42;;;;;;;5.78;1.88;;;;;;;;;;5137489;27;20015;-61
2023/07/25 02:29:08;;;;;;;4.97;1.70;;;;;;;;;;5126902;27;20091;-61
2023/07/25 02:31:33;;;;;;;5.40;1.90;;;;;;;;;;5142346;27;20109;-61
2023/07/25 02:33:58;;;;;;;4.70;1.80;;;;;;;;;;5128486;27;20105;-60
2023/07/25 02:36:23;;;;;;;4.60;1.80;;;;;;;;;;5139833;27;20103;-61
2023/07/25 02:38:50;;;;;;;4.80;1.90;;;;;;;;;;5123152;27;20024;-61
2023/07/25 02:41:15;;;;;;;6.70;2.00;;;;;;;;;;5137008;27;20393;-62
2023/07/25 02:43:40;;;;;;;4.37;1.60;;;;;;;;;;5130685;27;20100;-60
2023/07/25 02:46:05;;;;;;;5.53;1.70;;;;;;;;;;5131575;27;20557;-61
2023/07/25 02:48:30;;;;;;;4.30;1.57;;;;;;;;;;5139327;27;20022;-59
2023/07/25 02:50:56;;;;;;;4.30;1.67;;;;;;;;;;5119133;27;20039;-61
2023/07/25 02:53:21;;;;;;;4.25;2.00;;;;;;;;;;5134892;27;20019;-62
2023/07/25 02:55:46;;;;;;;6.00;1.90;;;;;;;;;;5137711;27;20027;-61
2023/07/25 02:58:12;;;;;;;5.13;2.25;;;;;;;;;;5131149;27;20075;-62
2023/07/25 03:00:37;;;;;;;5.43;2.00;;;;;;;;;;5129535;27;20023;-61
2023/07/25 03:03:02;;;;;;;4.83;2.13;;;;;;;;;;5135972;27;20089;-62
2023/07/25 03:05:28;;;;;;;5.50;1.80;;;;;;;;;;5127022;27;20030;-62
2023/07/25 03:07:53;;;;;;;5.72;1.90;;;;;;;;;;5135968;27;20378;-62
2023/07/25 03:10:18;;;;;;;4.93;1.90;;;;;;;;;;5141756;27;20015;-61
2023/07/25 03:12:43;;;;;;;4.88;2.10;;;;;;;;;;5141988;27;20022;-62
2023/07/25 03:15:09;;;;;;;5.53;1.57;;;;;;;;;;5125773;27;20026;-61
2023/07/25 03:17:34;;;;;;;4.78;1.80;;;;;;;;;;5125396;27;20023;-61
2023/07/25 03:19:59;;;;;;;4.07;1.57;;;;;;;;;;5136379;27;20023;-62
2023/07/25 03:22:24;;;;;;;3.97;1.60;;;;;;;;;;5135975;27;20501;-61
2023/07/25 03:24:50;;;;;;;5.73;1.70;;;;;;;;;;5126614;27;20024;-60
2023/07/25 03:27:16;;;;;;;4.43;1.60;;;;;;;;;;5135653;27;20356;-60
2023/07/25 03:29:41;;;;;;;7.50;1.70;;;;;;;;;;5133559;27;20019;-60
2023/07/25 03:32:06;;;;;;;4.53;1.50;;;;;;;;;;5134173;27;20383;-61
2023/07/25 03:34:31;;;;;;;5.47;1.85;;;;;;;;;;5137447;27;20460;-62
2023/07/25 03:36:57;;;;;;;6.35;1.75;;;;;;;;;;5136046;27;20473;-60
2023/07/25 03:39:22;;;;;;;4.90;1.80;;;;;;;;;;5138128;27;20058;-62
2023/07/25 03:41:47;;;;;;;5.63;1.90;;;;;;;;;;5132458;27;20079;-61
2023/07/25 03:44:17;;;;;;;7.03;1.90;;;;;;;;;;5140550;27;20022;-61
2023/07/25 03:46:42;;;;;;;4.47;1.92;;;;;;;;;;5117522;27;20030;-62
2023/07/25 03:49:07;;;;;;;4.70;1.77;;;;;;;;;;5132521;27;20022;-62
2023/07/25 03:51:33;;;;;;;5.53;2.15;;;;;;;;;;5138109;27;20025;-62
2023/07/25 03:53:58;;;;;;;3.63;1.60;;;;;;;;;;5133058;27;20030;-61
2023/07/25 03:56:24;;;;;;;5.55;2.13;;;;;;;;;;5125557;27;20504;-61
2023/07/25 03:58:49;;;;;;;6.57;2.20;;;;;;;;;;5142063;27;20027;-62
2023/07/25 04:01:14;;;;;;;6.13;2.10;;;;;;;;;;5135327;27;20014;-62
2023/07/25 04:03:39;;;;;;;4.70;1.90;;;;;;;;;;5135061;27;20508;-60
2023/07/25 04:06:04;;;;;;;4.80;2.03;;;;;;;;;;5133259;27;20026;-62
2023/07/25 04:08:30;;;;;;;5.72;2.20;;;;;;;;;;5138353;27;20042;-62
2023/07/25 04:10:55;;;;;;;5.63;2.10;;;;;;;;;;5130446;27;20481;-61
2023/07/25 04:13:20;;;;;;;7.47;2.40;;;;;;;;;;5141498;27;20025;-60
2023/07/25 04:15:45;;;;;;;9.20;2.50;;;;;;;;;;5130764;27;20031;-60
2023/07/25 04:18:10;;;;;;;7.20;2.50;;;;;;;;;;5141640;27;20026;-61
2023/07/25 04:20:35;;;;;;;7.72;2.35;;;;;;;;;;5132409;27;20057;-62
2023/07/25 04:23:01;;;;;;;7.90;2.97;;;;;;;;;;5128686;27;20037;-62
2023/07/25 04:25:26;;;;;;;4.97;2.03;;;;;;;;;;5139788;27;20133;-62
2023/07/25 04:27:51;;;;;;;5.13;2.30;;;;;;;;;;5129907;27;20027;-61
2023/07/25 04:30:16;;;;;;;5.55;2.15;;;;;;;;;;5121115;27;20047;-62
2023/07/25 04:32:41;;;;;;;5.40;2.10;;;;;;;;;;5117948;27;20047;-60
2023/07/25 04:35:06;;;;;;;4.70;1.90;;;;;;;;;;5133506;27;20022;-61
2023/07/25 04:37:32;;;;;;;6.90;2.10;;;;;;;;;;5137673;27;20072;-62
2023/07/25 04:39:57;;;;;;;5.53;1.95;;;;;;;;;;5124594;27;20028;-61
2023/07/25 04:42:22;;;;;;;8.17;2.43;;;;;;;;;;5143335;27;20015;-61
2023/07/25 04:44:47;;;;;;;8.60;1.88;;;;;;;;;;5142046;27;20034;-62
2023/07/25 04:47:12;;;;;;;4.90;2.00;;;;;;;;;;5135713;27;20027;-61
2023/07/25 04:49:37;;;;;;;6.07;2.05;;;;;;;;;;5135717;27;20026;-62
2023/07/25 04:52:03;;;;;;;5.73;2.00;;;;;;;;;;5135433;27;20019;-60
2023/07/25 04:54:28;;;;;;;7.03;2.10;;;;;;;;;;5134825;27;20067;-62
2023/07/25 04:56:53;;;;;;;4.90;2.20;;;;;;;;;;5131856;27;20453;-62
2023/07/25 04:59:18;;;;;;;6.75;2.13;;;;;;;;;;5125672;27;20047;-61
2023/07/25 05:01:43;;;;;;;5.05;2.00;;;;;;;;;;5124201;27;20027;-62
2023/07/25 05:04:08;;;;;;;6.10;2.00;;;;;;;;;;5132176;27;20044;-61
2023/07/25 05:06:34;;;;;;;6.33;1.93;;;;;;;;;;5137835;27;20421;-61
2023/07/25 05:08:59;;;;;;;5.57;1.75;;;;;;;;;;5136421;27;20019;-62
2023/07/25 05:11:24;;;;;;;6.25;2.20;;;;;;;;;;5131987;27;20175;-59
2023/07/25 05:13:49;;;;;;;4.72;1.88;;;;;;;;;;5123349;27;20035;-59
2023/07/25 05:16:14;;;;;;;6.15;2.15;;;;;;;;;;5118013;27;20031;-60
2023/07/25 05:18:40;;;;;;;5.50;1.92;;;;;;;;;;5133287;27;20050;-58
2023/07/25 05:21:05;;;;;;;7.50;2.10;;;;;;;;;;5127857;27;20076;-60
2023/07/25 05:23:30;;;;;;;5.30;2.00;;;;;;;;;;5123250;27;20026;-60
2023/07/25 05:25:55;;;;;;;9.37;2.43;;;;;;;;;;5125661;27;20102;-60
2023/07/25 05:28:20;;;;;;;7.67;2.50;;;;;;;;;;5133907;27;20027;-60
2023/07/25 05:30:45;;;;;;;5.43;2.10;;;;;;;;;;5143099;27;20058;-60
2023/07/25 05:33:11;;;;;;;5.17;1.77;;;;;;;;;;5139156;27;20015;-62
2023/07/25 05:35:36;;;;;;;8.27;3.10;;;;;;;;;;5143121;27;20026;-60
2023/07/25 05:38:02;;;;;;;7.38;2.63;;;;;;;;;;5130880;27;20050;-62
2023/07/25 05:40:28;;;;;;;5.47;2.88;;;;;;;;;;5130642;27;20019;-61
2023/07/25 05:42:53;;;;;;;6.28;2.50;;;;;;;;;;5137987;27;20034;-60
2023/07/25 05:45:18;;;;;;;7.03;2.78;;;;;;;;;;5139864;27;20098;-61
2023/07/25 05:47:43;;;;;;;6.90;2.50;;;;;;;;;;5129819;27;20562;-61
2023/07/25 05:50:08;;;;;;;7.28;2.75;;;;;;;;;;5117512;27;20033;-61
2023/07/25 05:52:34;;;;;;;7.53;3.03;;;;;;;;;;5138250;27;20042;-62
2023/07/25 05:54:59;;;;;;;7.22;2.80;;;;;;;;;;5136023;27;20464;-62
2023/07/25 05:57:24;;;;;;;8.18;2.63;;;;;;;;;;5134539;27;20557;-62
2023/07/25 05:59:49;;;;;;;5.63;2.20;;;;;;;;;;5137761;27;20036;-61
2023/07/25 06:02:16;;;;;;;5.47;2.17;;;;;;;;;;5137059;27;20645;-59
2023/07/25 06:04:42;;;;;;;6.68;2.70;;;;;;;;;;5134218;27;20034;-61
2023/07/25 06:07:08;;;;;;;6.32;2.95;;;;;;;;;;5143379;27;20054;-62
2023/07/25 06:09:33;;;;;;;6.03;2.75;;;;;;;;;;5139017;27;20050;-62
2023/07/25 06:11:59;;;;;;;6.47;2.33;;;;;;;;;;5138185;27;20054;-62
2023/07/25 06:14:24;;;;;;;5.45;2.63;;;;;;;;;;5138014;27;20019;-62
2023/07/25 06:16:49;;;;;;;4.97;2.50;;;;;;;;;;5122908;27;20019;-62
2023/07/25 06:19:15;;;;;;;8.50;2.80;;;;;;;;;;5134287;27;20561;-61
2023/07/25 06:21:40;;;;;;;8.70;2.80;;;;;;;;;;5142966;27;20038;-60
2023/07/25 06:24:05;;;;;;;6.40;2.50;;;;;;;;;;5131380;27;20019;-60
2023/07/25 06:26:30;;;;;;;6.87;2.50;;;;;;;;;;5130984;27;20651;-61
2023/07/25 06:28:55;;;;;;;6.77;2.73;;;;;;;;;;5110391;28;20118;-59
2023/07/25 06:31:20;;;;;;;7.60;3.20;;;;;;;;;;5119716;27;20042;-59
2023/07/25 06:33:46;;;;;;;5.90;2.30;;;;;;;;;;5127986;27;20043;-60
2023/07/25 06:36:11;;;;;;;8.00;3.10;;;;;;;;;;5122252;27;20035;-60
2023/07/25 06:38:36;;;;;;;7.73;2.67;;;;;;;;;;5132386;27;20042;-62
2023/07/25 06:41:01;;;;;;;8.95;3.33;;;;;;;;;;5142374;27;20031;-62
2023/07/25 06:43:26;;;;;;;7.27;2.60;;;;;;;;;;5134234;27;20493;-63
2023/07/25 06:45:51;;;;;;;5.33;2.63;;;;;;;;;;5136737;27;20019;-62
2023/07/25 06:48:17;;;;;;;8.87;2.80;;;;;;;;;;5130740;27;20015;-59
2023/07/25 06:50:42;;;;;;;7.10;2.50;;;;;;;;;;5126151;27;20112;-60
2023/07/25 06:53:07;;;;;;;6.80;2.80;;;;;;;;;;5111713;27;20039;-60
2023/07/25 06:55:32;;;;;;;5.57;2.45;;;;;;;;;;5121562;27;20539;-60
2023/07/25 06:57:57;;;;;;;5.47;2.67;;;;;;;;;;5130042;27;20108;-59
2023/07/25 07:00:22;;;;;;;6.60;2.53;;;;;;;;;;5130394;27;20046;-62
2023/07/25 07:02:48;;;;;;;4.80;2.77;;;;;;;;;;5133696;27;20020;-61
2023/07/25 07:05:13;;;;;;;6.37;2.23;;;;;;;;;;5131624;27;20060;-62
2023/07/25 07:07:41;;;;;;;9.52;2.95;;;;;;;;;;5131824;27;20023;-63
2023/07/25 07:10:06;;;;;;;7.95;2.95;;;;;;;;;;5133682;27;20015;-61
2023/07/25 07:12:31;;;;;;;9.17;2.27;;;;;;;;;;5148994;27;20377;-60
2023/07/25 07:14:57;;;;;;;7.00;3.10;;;;;;;;;;5153375;27;20072;-61
2023/07/25 07:17:22;;;;;;;7.60;2.80;;;;;;;;;;5154258;27;20044;-63
2023/07/25 07:19:47;;;;;;;6.45;2.88;;;;;;;;;;5154994;27;20554;-62
2023/07/25 07:22:13;;;;;;;5.97;2.83;;;;;;;;;;5154193;27;20026;-62
2023/07/25 07:24:39;;;;;;;6.47;2.80;;;;;;;;;;5154066;27;20046;-59
2023/07/25 07:27:05;;;;;;;5.22;2.80;;;;;;;;;;5153876;27;20015;-61
2023/07/25 07:29:30;;;;;;;8.87;2.90;;;;;;;;;;5153450;27;20023;-62
2023/07/25 07:31:55;;;;;;;5.30;3.20;;;;;;;;;;5153451;27;20019;-60
2023/07/25 07:34:20;;;;;;;8.65;3.78;;;;;;;;;;5152993;27;20038;-60
2023/07/25 07:36:45;;;;;;;7.37;3.20;;;;;;;;;;5132985;27;20124;-60
2023/07/25 07:39:11;;;;;;;8.80;3.13;;;;;;;;;;5132882;27;20163;-60
2023/07/25 07:41:36;;;;;;;4.93;2.50;;;;;;;;;;5113284;27;20039;-60
2023/07/25 07:44:02;;;;;;;6.20;3.50;;;;;;;;;;5112235;28;20019;-62
2023/07/25 07:46:30;;;;;;;6.78;3.45;;;;;;;;;;5112540;28;20015;-61
2023/07/25 07:48:56;;;;;;;7.47;2.97;;;;;;;;;;5111476;28;20470;-60
2023/07/25 07:51:21;;;;;;;7.15;3.55;;;;;;;;;;5111962;28;20092;-60
2023/07/25 07:53:46;;;;;;;9.80;3.60;;;;;;;;;;5111297;28;20050;-61
2023/07/25 07:56:12;;;;;;;8.52;3.35;;;;;;;;;;5111894;28;20016;-61
2023/07/25 07:58:37;;;;;;;7.40;3.17;;;;;;;;;;5110709;27;20037;-60
2023/07/25 08:01:02;;;;;;;6.90;3.33;;;;;;;;;;5111625;27;20038;-60
2023/07/25 08:03:28;;;;;;;7.85;2.90;;;;;;;;;;5129655;27;20031;-61
2023/07/25 08:05:56;;;;;;;6.93;3.28;;;;;;;;;;5132322;27;20030;-61
2023/07/25 08:08:21;;;;;;;7.45;2.90;;;;;;;;;;5132153;27;20427;-62
2023/07/25 08:10:46;;;;;;;6.60;2.90;;;;;;;;;;5132032;27;20038;-60
2023/07/25 08:13:12;;;;;;;9.03;3.13;;;;;;;;;;5131303;27;20027;-62
2023/07/25 08:15:37;;;;;;;8.73;3.25;;;;;;;;;;5131365;27;20015;-60
2023/07/25 08:18:02;;;;;;;6.70;3.70;;;;;;;;;;5132035;27;20087;-62
2023/07/25 08:20:27;;;;;;;6.77;3.00;;;;;;;;;;5132047;27;20030;-62
2023/07/25 08:22:52;;;;;;;8.85;3.25;;;;;;;;;;5131413;27;20098;-62
2023/07/25 08:25:17;;;;;;;8.55;3.22;;;;;;;;;;5131608;27;20019;-61
2023/07/25 08:27:42;;;;;;;7.07;3.20;;;;;;;;;;5131724;27;20038;-62
2023/07/25 08:30:08;;;;;;;5.43;2.50;;;;;;;;;;5120995;27;20039;-61
2023/07/25 08:32:33;;;;;;;6.67;3.20;;;;;;;;;;5111238;28;20085;-59
2023/07/25 08:34:58;;;;;;;7.17;2.63;;;;;;;;;;5125626;27;20479;-61
2023/07/25 08:37:25;;;;;;;7.43;2.63;;;;;;;;;;5130528;27;20019;-62
2023/07/25 08:39:50;;;;;;;5.15;2.70;;;;;;;;;;5130401;28;20088;-62
2023/07/25 08:42:15;;;;;;;5.90;2.80;;;;;;;;;;5131623;28;20011;-62
2023/07/25 08:44:41;;;;;;;8.40;2.75;;;;;;;;;;5131477;27;20027;-62
2023/07/25 08:47:15;;;;;;;7.07;3.08;;;;;;;;;;5131958;27;20011;-63
2023/07/25 08:49:40;;;;;;;7.85;3.50;;;;;;;;;;5114816;27;20112;-61
2023/07/25 08:52:07;;;;;;;5.70;3.30;;;;;;;;;;5111039;28;20077;-61
2023/07/25 08:54:32;;;;;;;;;;;;;;;;;;5111147;28;20016;-61
2023/07/25 08:56:58;;;;;;;6.00;2.63;;;;;;;;;;5110810;28;19954;-62
2023/07/25 08:59:24;;;;;;;5.72;2.20;;;;;;;;;;5111115;28;20032;-62
2023/07/25 09:01:49;;;;;;;6.50;2.50;;;;;;;;;;5111060;28;20012;-62
2023/07/25 09:04:14;;;;;;;7.07;2.22;;;;;;;;;;5110777;28;20126;-61
2023/07/25 09:06:40;;;;;;;6.00;2.25;;;;;;;;;;5109045;28;20039;-60
2023/07/25 09:09:05;;;;;;;5.85;2.15;;;;;;;;;;5111613;27;20460;-61
2023/07/25 09:11:32;;;;;;;4.83;2.40;;;;;;;;;;5110845;28;20536;-62
2023/07/25 09:13:57;;;;;;;4.90;1.95;;;;;;;;;;5115367;28;20023;-63
2023/07/25 09:16:22;;;;;;;7.43;2.20;;;;;;;;;;5131533;27;20064;-62
2023/07/25 09:18:48;;;;;;;4.47;2.00;;;;;;;;;;5131264;27;20022;-62
2023/07/25 09:21:14;;;;;;;6.17;2.20;;;;;;;;;;5131499;27;20525;-62
2023/07/25 09:23:43;;;;;;;5.50;2.00;;;;;;;;;;5130769;28;20440;-63
2023/07/25 09:26:10;;;;;;;5.63;2.08;;;;;;;;;;5131129;27;20387;-62
2023/07/25 09:28:35;;;;;;;5.78;2.40;;;;;;;;;;5134642;27;20018;-62
2023/07/25 09:31:04;;;;;;;4.95;2.70;;;;;;;;;;5135320;27;20031;-63
2023/07/25 09:33:29;;;;;;;6.30;2.40;;;;;;;;;;5128092;27;20026;-62
2023/07/25 09:35:55;;;;;;;7.38;2.88;;;;;;;;;;5134976;27;20055;-61
2023/07/25 09:38:20;;;;;;;7.00;2.60;;;;;;;;;;5134866;27;20060;-62
2023/07/25 09:40:45;;;;;;;6.97;2.80;;;;;;;;;;5134817;27;20471;-63
2023/07/25 09:43:21;;;;;;;5.35;2.60;;;;;;;;;;5133921;27;20444;-62
2023/07/25 09:45:46;;;;;;;6.82;2.53;;;;;;;;;;5134967;27;20041;-61
2023/07/25 09:48:11;;;;;;;5.13;2.28;;;;;;;;;;5134845;27;20517;-61
2023/07/25 09:50:36;;;;;;;6.43;2.60;;;;;;;;;;5134590;27;20031;-60
2023/07/25 09:53:02;;;;;;;6.70;2.23;;;;;;;;;;5134204;27;20026;-62
2023/07/25 09:55:27;;;;;;;6.45;2.22;;;;;;;;;;5134705;27;20019;-62
2023/07/25 09:57:53;;;;;;;6.93;2.85;;;;;;;;;;5134922;27;20015;-61
2023/07/25 10:00:18;;;;;;;4.50;2.25;;;;;;;;;;5134919;27;20020;-60
2023/07/25 10:02:44;;;;;;;5.43;2.35;;;;;;;;;;5134820;27;20379;-62
2023/07/25 10:05:09;;;;;;;7.50;2.60;;;;;;;;;;5136440;27;20514;-63
2023/07/25 10:07:35;;;;;;;5.13;2.65;;;;;;;;;;5136592;27;20481;-60
2023/07/25 10:10:01;;;;;;;5.95;2.60;;;;;;;;;;5138723;27;20102;-61
2023/07/25 10:12:26;;;;;;;8.50;2.85;;;;;;;;;;5136802;27;20079;-61
2023/07/25 10:14:51;;;;;;;5.95;2.70;;;;;;;;;;5134169;27;20105;-63
2023/07/25 10:17:16;;;;;;;6.37;2.50;;;;;;;;;;5134103;27;20027;-60
2023/07/25 10:19:48;;;;;;;5.10;2.50;;;;;;;;;;5134197;27;20011;-62
2023/07/25 10:22:14;;;;;;;5.80;2.47;;;;;;;;;;5133935;27;20038;-61
2023/07/25 10:24:39;;;;;;;8.43;2.70;;;;;;;;;;5133593;27;20383;-61
2023/07/25 10:27:06;;;;;;;5.13;2.30;;;;;;;;;;5134030;27;20019;-63
2023/07/25 10:29:35;;;;;;;6.25;2.70;;;;;;;;;;5133585;27;20148;-62
2023/07/25 10:32:01;;;;;;;6.47;2.25;;;;;;;;;;5133863;27;20106;-63
2023/07/25 10:34:42;;;;;;;5.55;2.10;;;;;;;;;;5133264;27;20478;-61
2023/07/25 10:37:19;;;;;;;5.97;2.25;;;;;;;;;;5133870;27;20486;-61
2023/07/25 10:39:44;;;;;;;5.55;2.00;;;;;;;;;;5129785;27;20043;-61
2023/07/25 10:42:14;;;;;;;5.63;2.00;;;;;;;;;;5122789;27;20132;-61
2023/07/25 10:44:40;;;;;;;4.78;2.38;;;;;;;;;;5111657;28;20028;-61
2023/07/25 10:47:34;;;;;;;5.93;2.60;;;;;;;;;;5113328;28;20027;-61
2023/07/25 10:49:59;;;;;;;8.07;2.97;;;;;;;;;;5103354;28;20106;-62
2023/07/25 10:52:43;;;;;;;5.27;3.03;;;;;;;;;;5112687;28;20023;-62
2023/07/25 10:55:09;;;;;;;5.50;2.20;;;;;;;;;;5112837;28;20027;-61
2023/07/25 10:57:34;;;;;;;5.35;2.25;;;;;;;;;;5112867;28;20019;-63
2023/07/25 11:00:01;;;;;;;5.30;2.50;;;;;;;;;;5111577;27;20039;-59
2023/07/25 11:02:27;;;;;;;5.38;2.33;;;;;;;;;;5112543;28;20026;-61
2023/07/25 11:04:52;;;;;;;;;;;;;;;;;;5112795;28;20019;-62
2023/07/25 11:07:17;;;;;;;6.13;2.33;;;;;;;;;;5112119;27;20007;-60
2023/07/25 11:09:43;;;;;;;4.97;2.35;;;;;;;;;;5112614;28;20429;-63
2023/07/25 11:12:10;;;;;;;4.60;2.55;;;;;;;;;;5112085;28;20475;-62
2023/07/25 11:14:42;;;;;;;5.47;2.20;;;;;;;;;;5112071;28;20019;-62
2023/07/25 11:17:07;;;;;;;5.40;2.67;;;;;;;;;;5112906;28;20539;-62
2023/07/25 11:19:32;;;;;;;5.22;2.58;;;;;;;;;;5112341;28;20023;-61
2023/07/25 11:21:58;;;;;;;5.27;2.53;;;;;;;;;;5112144;28;20100;-62
2023/07/25 11:24:23;;;;;;;5.33;1.83;;;;;;;;;;5111584;28;20016;-60
2023/07/25 11:26:48;;;;;;;5.07;2.23;;;;;;;;;;5112189;28;20137;-62
2023/07/25 11:29:13;;;;;;;5.43;2.43;;;;;;;;;;5111740;27;20105;-62
2023/07/25 11:31:49;;;;;;;4.50;2.50;;;;;;;;;;5122238;27;20106;-62
2023/07/25 11:34:15;;;;;;;4.93;2.58;;;;;;;;;;5132064;27;20011;-60
2023/07/25 11:36:41;;;;;;;5.53;2.55;;;;;;;;;;5132501;27;20054;-62
2023/07/25 11:39:08;;;;;;;7.85;2.80;;;;;;;;;;5132535;27;20047;-61
2023/07/25 11:41:33;;;;;;;5.60;2.45;;;;;;;;;;5132517;27;20019;-62
2023/07/25 11:43:59;;;;;;;5.47;2.42;;;;;;;;;;5132117;27;20023;-62
2023/07/25 11:46:24;;;;;;;5.77;2.70;;;;;;;;;;5124436;27;20020;-63
2023/07/25 11:48:50;;;;;;;6.57;2.40;;;;;;;;;;5111838;28;20911;-62
2023/07/25 11:51:15;;;;;;;6.03;2.80;;;;;;;;;;5111379;28;20027;-62
2023/07/25 11:53:41;;;;;;;6.70;2.70;;;;;;;;;;5111077;28;20073;-63
2023/07/25 11:56:06;;;;;;;4.10;1.92;;;;;;;;;;5111502;28;20020;-63
2023/07/25 11:58:31;;;;;;;4.60;2.60;;;;;;;;;;5111870;28;20019;-62
2023/07/25 12:00:56;;;;;;;;;;;;;;;;;;5112330;28;20020;-61
2023/07/25 12:03:23;;;;;;;4.10;2.00;;;;;;;;;;5111042;28;19923;-61
2023/07/25 12:05:55;;;;;;;7.10;2.50;;;;;;;;;;5111524;28;20016;-61
2023/07/25 12:08:31;;;;;;;5.82;2.50;;;;;;;;;;5111491;28;20024;-61
2023/07/25 12:10:59;;;;;;;5.03;2.15;;;;;;;;;;5111024;28;20405;-61
2023/07/25 12:13:24;;;;;;;5.13;2.45;;;;;;;;;;5110644;27;20030;-61
2023/07/25 12:15:54;;;;;;;9.85;3.17;;;;;;;;;;5111154;28;20387;-61
2023/07/25 12:18:30;;;;;;;5.68;2.50;;;;;;;;;;5111438;28;20467;-61
2023/07/25 12:20:56;;;;;;;5.07;2.75;;;;;;;;;;5149651;27;20029;-63
2023/07/25 12:23:28;;;;;;;8.70;2.20;;;;;;;;;;5152372;27;20014;-64
2023/07/25 12:25:54;;;;;;;5.43;2.78;;;;;;;;;;5152592;27;20030;-60
2023/07/25 12:28:19;;;;;;;4.60;2.40;;;;;;;;;;5152513;27;20015;-60
2023/07/25 12:30:44;;;;;;;4.40;2.20;;;;;;;;;;5140069;27;20080;-61
2023/07/25 12:33:09;;;;;;;4.55;2.55;;;;;;;;;;5131168;27;20019;-60
2023/07/25 12:35:34;;;;;;;4.78;2.83;;;;;;;;;;5130628;28;20019;-60
2023/07/25 12:37:59;;;;;;;5.50;2.95;;;;;;;;;;5131753;28;20015;-61
2023/07/25 12:40:25;;;;;;;6.53;2.67;;;;;;;;;;5131644;28;20062;-61
2023/07/25 12:42:50;;;;;;;6.20;2.70;;;;;;;;;;5129802;27;20065;-61
2023/07/25 12:45:15;;;;;;;7.95;2.60;;;;;;;;;;5131973;28;20020;-61
2023/07/25 12:47:40;;;;;;;5.00;2.73;;;;;;;;;;5132063;27;20027;-61
2023/07/25 12:50:05;;;;;;;4.60;2.50;;;;;;;;;;5132040;27;20012;-60
2023/07/25 12:52:31;;;;;;;7.78;2.65;;;;;;;;;;5131855;28;20035;-62
2023/07/25 12:54:56;;;;;;;6.53;2.40;;;;;;;;;;5131465;27;20046;-61
2023/07/25 12:57:21;;;;;;;5.88;2.30;;;;;;;;;;5130036;28;20471;-61
2023/07/25 12:59:46;;;;;;;7.63;2.43;;;;;;;;;;5131509;27;20109;-61
2023/07/25 13:02:11;;;;;;;5.30;2.50;;;;;;;;;;5133186;27;20034;-62
2023/07/25 13:04:37;;;;;;;4.60;2.23;;;;;;;;;;5134899;27;20030;-61
2023/07/25 13:07:03;;;;;;;;;;;;;;;;;;5134670;27;20387;-61
2023/07/25 13:09:28;;;;;;;4.90;2.20;;;;;;;;;;5135660;27;20336;-61
2023/07/25 13:11:54;;;;;;;8.18;2.60;;;;;;;;;;5135455;27;20510;-61
2023/07/25 13:14:19;;;;;;;5.32;2.28;;;;;;;;;;5130071;27;20449;-61
2023/07/25 13:16:44;;;;;;;6.72;2.30;;;;;;;;;;5114298;27;20029;-61
2023/07/25 13:19:12;;;;;;;5.25;2.13;;;;;;;;;;5113654;28;20015;-58
2023/07/25 13:21:37;;;;;;;3.70;1.83;;;;;;;;;;5131018;27;20046;-61
2023/07/25 13:24:04;;;;;;;5.03;2.00;;;;;;;;;;5134911;27;20011;-61
2023/07/25 13:26:29;;;;;;;5.97;2.30;;;;;;;;;;5135374;27;20031;-62
2023/07/25 13:28:54;;;;;;;4.77;2.50;;;;;;;;;;5135087;27;20351;-59
2023/07/25 13:31:19;;;;;;;6.05;2.42;;;;;;;;;;5134804;27;20027;-61
2023/07/25 13:33:44;;;;;;;4.83;2.60;;;;;;;;;;5134452;27;20015;-62
2023/07/25 13:36:09;;;;;;;6.33;2.30;;;;;;;;;;5135041;27;20019;-64
2023/07/25 13:38:35;;;;;;;6.93;2.40;;;;;;;;;;5135214;27;20356;-61
2023/07/25 13:41:00;;;;;;;4.57;2.33;;;;;;;;;;5134726;27;20023;-60
2023/07/25 13:43:25;;;;;;;5.03;2.42;;;;;;;;;;5134519;27;20501;-60
2023/07/25 13:45:50;;;;;;;7.17;2.63;;;;;;;;;;5134971;27;20031;-62
2023/07/25 13:48:16;;;;;;;6.68;2.53;;;;;;;;;;5129016;27;20027;-62
2023/07/25 13:50:41;;;;;;;5.10;2.75;;;;;;;;;;5114122;27;20483;-60
2023/07/25 13:53:06;;;;;;;5.27;2.80;;;;;;;;;;5113190;27;20031;-62
2023/07/25 13:55:32;;;;;;;7.37;3.20;;;;;;;;;;5114275;28;20019;-63
2023/07/25 13:57:57;;;;;;;7.73;3.07;;;;;;;;;;5114985;27;20454;-61
2023/07/25 14:00:22;;;;;;;5.25;2.80;;;;;;;;;;5121406;28;20047;-64
2023/07/25 14:02:47;;;;;;;7.88;3.72;;;;;;;;;;5113439;27;20028;-62
2023/07/25 14:05:12;;;;;;;6.67;4.03;;;;;;;;;;5114126;28;20023;-62
2023/07/25 14:07:37;;;;;;;7.67;4.17;;;;;;;;;;5114102;28;20379;-62
2023/07/25 14:10:03;;;;;;;8.10;3.97;;;;;;;;;;5114046;28;20026;-62
2023/07/25 14:12:28;;;;;;;8.05;4.70;;;;;;;;;;5113826;28;20063;-61
2023/07/25 14:14:53;;;;;;;10.90;4.53;;;;;;;;;;5112162;28;20084;-62
2023/07/25 14:17:18;;;;;;;8.53;4.60;;;;;;;;;;5113826;28;20467;-62
2023/07/25 14:19:43;;;;;;;7.63;4.30;;;;;;;;;;5113434;28;20132;-61
2023/07/25 14:22:09;;;;;;;7.00;4.20;;;;;;;;;;5113903;28;20425;-61
2023/07/25 14:24:34;;;;;;;8.53;5.27;;;;;;;;;;5113238;28;20023;-61
2023/07/25 14:26:59;;;;;;;8.90;5.18;;;;;;;;;;5112492;28;20020;-61
2023/07/25 14:29:24;;;;;;;8.20;4.82;;;;;;;;;;5131120;27;20030;-61
2023/07/25 14:31:49;;;;;;;8.03;4.80;;;;;;;;;;5134432;27;20497;-61
2023/07/25 14:34:14;;;;;;;7.40;5.00;;;;;;;;;;5133265;27;20015;-61